createdAt,value
2022-09-15T00:01:20.034Z,96632.81
2022-09-15T00:03:47.897Z,96626.84
2022-09-15T00:06:15.999Z,96620.06
2022-09-15T00:08:44.141Z,96619.75
2022-09-15T00:11:25.978Z,96614.09
2022-09-15T00:13:55.123Z,96617.59
2022-09-15T00:16:25.415Z,96616.56
2022-09-15T00:18:53.448Z,96616.84
2022-09-15T00:21:30.486Z,96613.06
2022-09-15T00:23:59.996Z,96616.28
2022-09-15T00:26:30.774Z,96608.16
2022-09-15T00:29:00.248Z,96611.94
2022-09-15T00:31:30.629Z,96614.34
2022-09-15T00:34:05.049Z,96608.69
2022-09-15T00:36:33.123Z,96609.25
2022-09-15T00:39:01.044Z,96620.88
2022-09-15T00:41:29.577Z,96620.38
2022-09-15T00:44:26.292Z,96616.03
2022-09-15T00:47:17.752Z,96618.47
2022-09-15T00:49:47.393Z,96614.41
2022-09-15T00:52:35.098Z,96621.19
2022-09-15T00:55:17.384Z,96620.13
2022-09-15T00:58:01.366Z,96618.72
2022-09-15T01:00:30.018Z,96623.56
2022-09-15T01:02:59.096Z,96620.84
2022-09-15T01:05:53.816Z,96612.13
2022-09-15T01:08:33.127Z,96610.47
2022-09-15T01:11:02.597Z,96602.06
2022-09-15T01:13:30.508Z,96603.09
2022-09-15T01:16:27.302Z,96599.50
2022-09-15T01:19:32.327Z,96591.13
2022-09-15T01:22:17.471Z,96589.78
2022-09-15T01:24:57.351Z,96592.50
2022-09-15T01:28:08.617Z,96599.50
2022-09-15T01:30:39.824Z,96596.84
2022-09-15T01:33:13.398Z,96596.31
2022-09-15T01:36:14.383Z,96587.81
2022-09-15T01:38:56.813Z,96582.59
2022-09-15T01:41:49.491Z,96580.41
2022-09-15T01:47:21.108Z,96580.66
2022-09-15T01:50:04.168Z,96578.78
2022-09-15T01:52:33.561Z,96581.75
2022-09-15T01:55:11.976Z,96577.69
2022-09-15T01:57:39.697Z,96575.53
2022-09-15T02:00:08.663Z,96578.84
2022-09-15T02:02:44.092Z,96584.56
2022-09-15T02:05:16.628Z,96573.91
2022-09-15T02:08:10.813Z,96579.91
2022-09-15T02:10:41.428Z,96571.22
2022-09-15T02:13:17.151Z,96576.31
2022-09-15T02:15:51.673Z,96573.91
2022-09-15T02:18:44.141Z,96567.41
2022-09-15T02:21:23.398Z,96567.41
2022-09-15T02:23:58.758Z,96574.47
2022-09-15T02:26:30.497Z,96579.03
2022-09-15T02:29:00.511Z,96575.78
2022-09-15T02:31:30.033Z,96567.41
2022-09-15T02:34:07.845Z,96563.41
2022-09-15T02:36:35.903Z,96560.44
2022-09-15T02:39:13.192Z,96562.00
2022-09-15T02:41:41.610Z,96560.94
2022-09-15T02:44:10.249Z,96565.53
2022-09-15T02:46:39.745Z,96559.03
2022-09-15T02:49:07.790Z,96550.13
2022-09-15T02:51:35.968Z,96551.81
2022-09-15T02:54:03.741Z,96564.00
2022-09-15T02:56:31.534Z,96555.09
2022-09-15T02:58:59.314Z,96551.59
2022-09-15T03:01:32.255Z,96551.91
2022-09-15T03:04:01.298Z,96557.31
2022-09-15T03:06:34.572Z,96546.19
2022-09-15T03:09:09.057Z,96555.72
2022-09-15T03:11:37.167Z,96557.38
2022-09-15T03:14:07.103Z,96558.13
2022-09-15T03:16:35.723Z,96557.88
2022-09-15T03:19:04.491Z,96562.47
2022-09-15T03:21:32.228Z,96569.50
2022-09-15T03:24:00.603Z,96558.97
2022-09-15T03:26:28.525Z,96563.59
2022-09-15T03:28:56.248Z,96563.53
2022-09-15T03:31:24.043Z,96563.50
2022-09-15T03:33:54.907Z,96564.00
2022-09-15T03:36:22.757Z,96570.22
2022-09-15T03:38:50.525Z,96564.97
2022-09-15T03:41:18.994Z,96561.13
2022-09-15T03:43:46.724Z,96566.56
2022-09-15T03:46:14.767Z,96558.44
2022-09-15T03:48:42.787Z,96555.41
2022-09-15T03:51:11.487Z,96558.41
2022-09-15T03:53:41.845Z,96560.59
2022-09-15T03:56:12.131Z,96564.94
2022-09-15T03:58:40.197Z,96567.38
2022-09-15T04:01:08.821Z,96569.81
2022-09-15T04:03:42.104Z,96565.81
2022-09-15T04:06:12.826Z,96568.00
2022-09-15T04:08:41.157Z,96567.25
2022-09-15T04:11:12.248Z,96562.34
2022-09-15T04:13:42.073Z,96566.94
2022-09-15T04:16:15.101Z,96559.38
2022-09-15T04:18:43.144Z,96564.00
2022-09-15T04:21:15.247Z,96557.19
2022-09-15T04:23:43.560Z,96564.81
2022-09-15T04:26:33.725Z,96561.84
2022-09-15T04:29:04.811Z,96569.69
2022-09-15T04:31:34.181Z,96563.22
2022-09-15T04:34:02.096Z,96560.75
2022-09-15T04:36:30.213Z,96558.03
2022-09-15T04:38:58.894Z,96549.38
2022-09-15T04:41:28.059Z,96550.13
2022-09-15T04:43:56.338Z,96547.75
2022-09-15T04:46:24.098Z,96548.22
2022-09-15T04:48:52.212Z,96548.81
2022-09-15T04:51:22.244Z,96547.41
2022-09-15T04:53:50.617Z,96554.97
2022-09-15T04:56:24.526Z,96553.81
2022-09-15T04:59:02.506Z,96549.75
2022-09-15T05:01:35.764Z,96550.31
2022-09-15T05:04:04.738Z,96552.72
2022-09-15T05:06:33.543Z,96554.91
2022-09-15T05:09:05.423Z,96552.47
2022-09-15T05:11:37.300Z,96562.78
2022-09-15T05:14:05.537Z,96573.09
2022-09-15T05:16:33.505Z,96567.16
2022-09-15T05:19:03.310Z,96581.03
2022-09-15T05:21:32.269Z,96581.84
2022-09-15T05:24:00.119Z,96584.19
2022-09-15T05:26:30.124Z,96580.16
2022-09-15T05:28:58.302Z,96576.34
2022-09-15T05:31:33.888Z,96578.78
2022-09-15T05:34:05.500Z,96583.34
2022-09-15T05:36:34.140Z,96581.75
2022-09-15T05:39:02.041Z,96600.44
2022-09-15T05:41:30.520Z,96588.47
2022-09-15T05:43:58.761Z,96590.81
2022-09-15T05:46:28.031Z,96590.88
2022-09-15T05:48:58.363Z,96591.44
2022-09-15T05:51:26.098Z,96592.50
2022-09-15T05:53:53.913Z,96595.75
2022-09-15T05:56:22.458Z,96595.22
2022-09-15T05:58:50.233Z,96597.09
2022-09-15T06:01:22.427Z,96594.66
2022-09-15T06:03:51.015Z,96588.44
2022-09-15T06:06:19.783Z,96587.63
2022-09-15T06:08:55.667Z,96594.34
2022-09-15T06:11:29.835Z,96604.91
2022-09-15T06:14:03.621Z,96601.97
2022-09-15T06:16:34.752Z,96598.44
2022-09-15T06:19:03.446Z,96607.94
2022-09-15T06:21:32.888Z,96603.56
2022-09-15T06:24:04.574Z,96607.38
2022-09-15T06:26:32.570Z,96607.13
2022-09-15T06:29:02.801Z,96622.75
2022-09-15T06:31:32.982Z,96611.59
2022-09-15T06:34:01.818Z,96614.06
2022-09-15T06:36:31.122Z,96618.66
2022-09-15T06:38:59.541Z,96622.69
2022-09-15T06:41:38.195Z,96629.97
2022-09-15T06:44:16.224Z,96630.47
2022-09-15T06:46:43.991Z,96629.09
2022-09-15T06:49:11.748Z,96632.75
2022-09-15T06:51:39.818Z,96636.03
2022-09-15T06:54:07.916Z,96630.28
2022-09-15T06:56:38.315Z,96634.97
2022-09-15T06:59:06.746Z,96628.78
2022-09-15T07:01:35.419Z,96627.72
2022-09-15T07:04:08.395Z,96626.41
2022-09-15T07:06:38.865Z,96616.38
2022-09-15T07:09:06.955Z,96624.81
2022-09-15T07:11:35.007Z,96626.09
2022-09-15T07:14:02.764Z,96625.63
2022-09-15T07:16:30.696Z,96629.91
2022-09-15T07:19:01.292Z,96633.38
2022-09-15T07:21:29.090Z,96629.59
2022-09-15T07:23:57.864Z,96628.03
2022-09-15T07:26:28.812Z,96627.84
2022-09-15T07:29:02.871Z,96637.41
2022-09-15T07:31:33.542Z,96633.91
2022-09-15T07:34:02.536Z,96629.34
2022-09-15T07:36:31.166Z,96635.00
2022-09-15T07:38:59.134Z,96637.75
2022-09-15T07:41:30.444Z,96642.50
2022-09-15T07:44:00.475Z,96645.81
2022-09-15T07:46:32.178Z,96647.22
2022-09-15T07:49:02.825Z,96648.03
2022-09-15T07:51:32.013Z,96649.75
2022-09-15T07:54:00.471Z,96655.19
2022-09-15T07:56:28.191Z,96643.88
2022-09-15T07:58:56.670Z,96652.50
2022-09-15T08:01:24.490Z,96657.09
2022-09-15T08:03:53.235Z,96667.44
2022-09-15T08:06:23.910Z,96664.91
2022-09-15T08:08:57.674Z,96672.22
2022-09-15T08:11:29.366Z,96677.66
2022-09-15T08:14:02.660Z,96679.53
2022-09-15T08:16:31.172Z,96685.63
2022-09-15T08:18:59.698Z,96684.75
2022-09-15T08:21:28.330Z,96684.44
2022-09-15T08:24:01.400Z,96687.41
2022-09-15T08:26:30.968Z,96692.81
2022-09-15T08:28:59.469Z,96691.25
2022-09-15T08:31:27.284Z,96708.16
2022-09-15T08:33:56.267Z,96713.94
2022-09-15T08:36:27.654Z,96722.59
2022-09-15T08:38:56.224Z,96713.13
2022-09-15T08:41:31.001Z,96722.81
2022-09-15T08:44:40.802Z,96726.06
2022-09-15T08:47:32.091Z,96726.91
2022-09-15T08:50:08.207Z,96738.16
2022-09-15T08:52:45.979Z,96743.56
2022-09-15T08:55:21.173Z,96740.00
2022-09-15T08:57:49.238Z,96741.41
2022-09-15T09:00:19.516Z,96746.59
2022-09-15T09:03:02.713Z,96744.31
2022-09-15T09:06:03.695Z,96747.66
2022-09-15T09:08:43.247Z,96754.22
2022-09-15T09:11:37.577Z,96742.63
2022-09-15T09:14:27.060Z,96748.16
2022-09-15T09:16:57.778Z,96746.94
2022-09-15T09:19:53.113Z,96752.44
2022-09-15T09:22:28.102Z,96757.28
2022-09-15T09:24:59.910Z,96759.00
2022-09-15T09:27:35.872Z,96760.50
2022-09-15T09:30:21.148Z,96765.53
2022-09-15T09:33:58.160Z,96765.91
2022-09-15T09:36:27.102Z,96776.28
2022-09-15T09:38:56.947Z,96779.03
2022-09-15T09:41:35.558Z,96775.22
2022-09-15T09:44:09.932Z,96763.63
2022-09-15T09:46:37.744Z,96765.00
2022-09-15T09:49:23.108Z,96780.13
2022-09-15T09:51:54.608Z,96774.34
2022-09-15T09:54:27.369Z,96774.78
2022-09-15T09:57:17.140Z,96778.06
2022-09-15T09:59:51.823Z,96763.31
2022-09-15T10:02:25.088Z,96772.59
2022-09-15T10:04:55.178Z,96777.31
2022-09-15T10:07:26.616Z,96783.38
2022-09-15T10:10:00.291Z,96779.44
2022-09-15T10:12:39.660Z,96787.03
2022-09-15T10:15:22.106Z,96789.16
2022-09-15T10:17:51.871Z,96790.66
2022-09-15T10:20:49.401Z,96791.09
2022-09-15T10:23:17.007Z,96795.16
2022-09-15T10:26:01.107Z,96798.94
2022-09-15T10:28:29.164Z,96797.50
2022-09-15T10:31:10.744Z,96797.38
2022-09-15T10:33:41.969Z,96792.97
2022-09-15T10:36:28.317Z,96805.03
2022-09-15T10:39:31.750Z,96805.25
2022-09-15T10:42:11.481Z,96805.03
2022-09-15T10:45:04.421Z,96805.38
2022-09-15T10:48:02.825Z,96807.47
2022-09-15T10:50:54.933Z,96812.41
2022-09-15T10:53:57.660Z,96813.19
2022-09-15T10:56:43.080Z,96810.78
2022-09-15T10:59:48.188Z,96820.78
2022-09-15T11:02:54.248Z,96830.13
2022-09-15T11:05:46.714Z,96827.56
2022-09-15T11:08:38.367Z,96825.28
2022-09-15T11:12:03.632Z,96825.50
2022-09-15T11:15:23.153Z,96818.28
2022-09-15T11:18:09.705Z,96832.69
2022-09-15T11:21:24.806Z,96838.72
2022-09-15T11:24:32.273Z,96834.94
2022-09-15T11:27:34.627Z,96840.88
2022-09-15T11:30:20.176Z,96840.03
2022-09-15T11:33:02.619Z,96849.00
2022-09-15T11:35:33.486Z,96853.75
2022-09-15T11:39:09.491Z,96853.06
2022-09-15T11:41:51.033Z,96859.16
2022-09-15T11:44:38.849Z,96858.94
2022-09-15T11:47:39.904Z,96863.72
2022-09-15T11:50:45.877Z,96870.94
2022-09-15T11:53:27.820Z,96871.84
2022-09-15T11:56:21.867Z,96876.28
2022-09-15T11:58:58.449Z,96876.81
2022-09-15T12:01:41.295Z,96880.44
2022-09-15T12:04:20.741Z,96892.50
2022-09-15T12:07:13.909Z,96889.94
2022-09-15T12:09:42.755Z,96896.94
2022-09-15T12:12:18.527Z,96896.06
2022-09-15T12:14:49.329Z,96903.38
2022-09-15T12:17:45.333Z,96898.13
2022-09-15T12:20:12.974Z,96903.84
2022-09-15T12:22:58.076Z,96910.56
2022-09-15T12:26:05.800Z,96895.41
2022-09-15T12:28:57.434Z,96909.72
2022-09-15T12:31:28.314Z,96906.56
2022-09-15T12:34:05.222Z,96903.63
2022-09-15T12:36:42.926Z,96912.09
2022-09-15T12:39:51.312Z,96909.75
2022-09-15T12:42:31.646Z,96916.75
2022-09-15T12:45:21.499Z,96910.56
2022-09-15T12:47:55.042Z,96910.91
2022-09-15T12:50:31.253Z,96915.59
2022-09-15T12:53:04.026Z,96919.34
2022-09-15T12:55:37.739Z,96920.63
2022-09-15T12:58:16.310Z,96920.63
2022-09-15T13:01:07.114Z,96913.25
2022-09-15T13:06:14.918Z,96915.72
2022-09-15T13:08:47.818Z,96924.63
2022-09-15T13:11:47.583Z,96930.03
2022-09-15T13:14:35.717Z,96925.81
2022-09-15T13:17:19.530Z,96930.38
2022-09-15T13:19:56.328Z,96933.09
2022-09-15T13:22:34.815Z,96932.00
2022-09-15T13:25:13.807Z,96922.28
2022-09-15T13:27:58.770Z,96934.00
2022-09-15T13:31:19.343Z,96928.13
2022-09-15T13:38:12.589Z,96926.69
2022-09-15T13:41:21.288Z,96925.31
2022-09-15T13:44:27.963Z,96927.53
2022-09-15T13:47:42.277Z,96928.50
2022-09-15T13:50:36.390Z,96921.09
2022-09-15T13:53:06.792Z,96929.09
2022-09-15T13:55:39.287Z,96925.31
2022-09-15T14:01:11.100Z,96926.13
2022-09-15T14:03:51.809Z,96915.47
2022-09-15T14:06:38.149Z,96926.53
2022-09-15T14:09:25.360Z,96919.59
2022-09-15T14:12:01.899Z,96917.03
2022-09-15T14:14:42.191Z,96906.44
2022-09-15T14:17:28.766Z,96905.53
2022-09-15T14:20:00.730Z,96902.25
2022-09-15T14:22:35.226Z,96912.09
2022-09-15T14:25:14.408Z,96909.31
2022-09-15T14:27:51.936Z,96906.50
2022-09-15T14:30:26.442Z,96904.19
2022-09-15T14:33:00.792Z,96909.81
2022-09-15T14:35:36.099Z,96905.81
2022-09-15T14:38:03.894Z,96912.06
2022-09-15T14:40:40.025Z,96909.69
2022-09-15T14:43:27.483Z,96908.63
2022-09-15T14:46:06.893Z,96916.00
2022-09-15T14:48:36.740Z,96919.63
2022-09-15T14:51:33.345Z,96920.03
2022-09-15T14:54:03.316Z,96920.38
2022-09-15T14:56:36.509Z,96923.56
2022-09-15T14:59:17.072Z,96915.47
2022-09-15T15:02:36.949Z,96917.97
2022-09-15T15:05:15.003Z,96922.19
2022-09-15T15:07:43.598Z,96924.03
2022-09-15T15:10:30.084Z,96923.50
2022-09-15T15:13:06.067Z,96925.59
2022-09-15T15:15:34.492Z,96924.06
2022-09-15T15:18:30.992Z,96925.97
2022-09-15T15:21:00.350Z,96916.84
2022-09-15T15:23:28.910Z,96925.38
2022-09-15T15:26:36.336Z,96919.63
2022-09-15T15:29:09.519Z,96926.13
2022-09-15T15:31:40.417Z,96923.84
2022-09-15T15:34:24.638Z,96924.97
2022-09-15T15:37:01.677Z,96936.69
2022-09-15T15:39:29.725Z,96927.59
2022-09-15T15:42:06.388Z,96929.91
2022-09-15T15:44:34.305Z,96927.03
2022-09-15T15:47:13.689Z,96937.53
2022-09-15T15:50:02.258Z,96930.72
2022-09-15T15:52:29.323Z,96930.22
2022-09-15T15:54:57.088Z,96933.75
2022-09-15T15:57:30.330Z,96933.25
2022-09-15T16:00:00.262Z,96939.41
2022-09-15T16:02:28.254Z,96932.69
2022-09-15T16:04:56.014Z,96930.28
2022-09-15T16:07:31.086Z,96933.09
2022-09-15T16:10:01.543Z,96933.09
2022-09-15T16:12:31.920Z,96933.44
2022-09-15T16:15:06.833Z,96929.16
2022-09-15T16:17:34.535Z,96934.31
2022-09-15T16:20:02.525Z,96933.75
2022-09-15T16:22:30.301Z,96935.56
2022-09-15T16:24:58.080Z,96935.31
2022-09-15T16:27:25.891Z,96945.88
2022-09-15T16:29:53.640Z,96940.97
2022-09-15T16:32:22.589Z,96938.75
2022-09-15T16:34:52.622Z,96943.25
2022-09-15T16:37:20.519Z,96942.63
2022-09-15T16:39:48.528Z,96939.63
2022-09-15T16:42:16.304Z,96946.13
2022-09-15T16:44:45.282Z,96953.44
2022-09-15T16:47:12.966Z,96956.72
2022-09-15T16:49:40.728Z,96952.94
2022-09-15T16:52:12.726Z,96953.69
2022-09-15T16:54:40.649Z,96951.97
2022-09-15T16:57:08.389Z,96967.63
2022-09-15T16:59:36.219Z,96955.13
2022-09-15T17:02:12.345Z,96967.84
2022-09-15T17:04:40.076Z,96959.41
2022-09-15T17:07:08.088Z,96969.88
2022-09-15T17:09:35.842Z,96970.97
2022-09-15T17:12:04.667Z,96964.72
2022-09-15T17:14:32.893Z,96968.97
2022-09-15T17:17:00.600Z,96977.09
2022-09-15T17:19:28.430Z,96975.47
2022-09-15T17:21:56.201Z,96973.56
2022-09-15T17:24:24.238Z,96982.50
2022-09-15T17:26:52.030Z,96979.22
2022-09-15T17:29:19.764Z,96982.88
2022-09-15T17:31:47.514Z,96981.22
2022-09-15T17:34:15.343Z,96973.13
2022-09-15T17:36:43.092Z,96979.38
2022-09-15T17:39:11.030Z,96978.28
2022-09-15T17:41:38.848Z,96977.72
2022-09-15T17:44:11.534Z,96970.69
2022-09-15T17:46:39.612Z,96975.75
2022-09-15T17:49:07.462Z,96966.72
2022-09-15T17:51:35.219Z,96970.44
2022-09-15T17:54:03.091Z,96974.84
2022-09-15T17:56:31.060Z,96976.91
2022-09-15T17:58:58.868Z,96977.06
2022-09-15T18:01:26.683Z,96967.31
2022-09-15T18:03:54.824Z,96981.06
2022-09-15T18:06:22.569Z,96972.63
2022-09-15T18:08:50.438Z,96975.53
2022-09-15T18:11:18.413Z,96980.16
2022-09-15T18:13:46.464Z,96982.03
2022-09-15T18:16:15.224Z,96976.03
2022-09-15T18:18:43.240Z,96981.22
2022-09-15T18:21:27.918Z,96986.88
2022-09-15T18:23:56.242Z,96993.91
2022-09-15T18:26:26.335Z,96994.75
2022-09-15T18:28:54.942Z,96994.13
2022-09-15T18:31:22.920Z,97000.84
2022-09-15T18:33:50.706Z,96995.66
2022-09-15T18:36:20.816Z,97004.84
2022-09-15T18:38:48.597Z,97000.84
2022-09-15T18:41:16.583Z,97011.66
2022-09-15T18:43:48.984Z,97007.31
2022-09-15T18:46:17.631Z,97010.16
2022-09-15T18:48:45.454Z,97012.63
2022-09-15T18:51:19.699Z,97019.34
2022-09-15T18:53:54.238Z,97015.56
2022-09-15T18:56:22.572Z,97013.09
2022-09-15T18:58:53.955Z,97011.91
2022-09-15T19:01:22.172Z,97011.84
2022-09-15T19:03:49.989Z,97011.47
2022-09-15T19:06:17.773Z,97011.38
2022-09-15T19:08:45.537Z,97011.00
2022-09-15T19:11:13.885Z,97014.19
2022-09-15T19:13:43.014Z,97017.38
2022-09-15T19:16:12.210Z,97018.91
2022-09-15T19:18:40.413Z,97020.31
2022-09-15T19:21:11.707Z,97020.22
2022-09-15T19:23:39.736Z,97012.13
2022-09-15T19:26:16.823Z,97023.38
2022-09-15T19:28:44.994Z,97024.91
2022-09-15T19:31:13.811Z,97011.00
2022-09-15T19:33:41.796Z,97026.03
2022-09-15T19:36:27.476Z,97024.06
2022-09-15T19:38:56.033Z,97019.34
2022-09-15T19:41:23.965Z,97027.06
2022-09-15T19:43:51.726Z,97017.00
2022-09-15T19:46:25.491Z,97026.63
2022-09-15T19:48:54.592Z,97027.19
2022-09-15T19:51:22.713Z,97027.06
2022-09-15T19:53:57.881Z,97031.28
2022-09-15T19:56:28.631Z,97027.41
2022-09-15T19:58:58.484Z,97037.00
2022-09-15T20:01:29.553Z,97030.19
2022-09-15T20:03:57.747Z,97033.81
2022-09-15T20:06:31.552Z,97034.66
2022-09-15T20:09:00.497Z,97038.38
2022-09-15T20:11:30.225Z,97041.53
2022-09-15T20:13:58.655Z,97039.09
2022-09-15T20:16:27.217Z,97036.47
2022-09-15T20:18:55.962Z,97038.44
2022-09-15T20:21:48.743Z,97041.13
2022-09-15T20:24:16.517Z,97031.41
2022-09-15T20:26:44.320Z,97039.81
2022-09-15T20:29:13.247Z,97034.84
2022-09-15T20:31:42.700Z,97038.34
2022-09-15T20:34:10.444Z,97027.56
2022-09-15T20:36:39.325Z,97037.72
2022-09-15T20:39:13.279Z,97039.50
2022-09-15T20:41:45.168Z,97036.19
2022-09-15T20:44:13.090Z,97040.19
2022-09-15T20:46:41.228Z,97042.50
2022-09-15T20:49:11.091Z,97045.09
2022-09-15T20:51:39.544Z,97046.50
2022-09-15T20:54:07.329Z,97046.72
2022-09-15T20:56:36.189Z,97041.63
2022-09-15T20:59:06.022Z,97044.34
2022-09-15T21:01:37.222Z,97042.44
2022-09-15T21:04:10.150Z,97038.34
2022-09-15T21:06:38.974Z,97045.59
2022-09-15T21:09:07.058Z,97037.50
2022-09-15T21:11:35.730Z,97040.44
2022-09-15T21:14:04.178Z,97041.56
2022-09-15T21:16:33.830Z,97040.72
2022-09-15T21:19:02.024Z,97042.00
2022-09-15T21:21:32.910Z,97049.28
2022-09-15T21:24:04.708Z,97044.94
2022-09-15T21:27:00.284Z,97054.06
2022-09-15T21:29:29.008Z,97058.72
2022-09-15T21:31:57.850Z,97055.41
2022-09-15T21:34:26.391Z,97058.63
2022-09-15T21:36:54.191Z,97062.09
2022-09-15T21:39:21.990Z,97066.94
2022-09-15T21:41:50.100Z,97071.28
2022-09-15T21:44:18.041Z,97068.25
2022-09-15T21:46:47.035Z,97073.00
2022-09-15T21:49:15.006Z,97067.59
2022-09-15T21:51:42.926Z,97069.25
2022-09-15T21:54:10.808Z,97076.06
2022-09-15T21:56:38.586Z,97068.63
2022-09-15T21:59:09.034Z,97067.59
2022-09-15T22:01:36.901Z,97067.22
2022-09-15T22:04:08.231Z,97071.81
2022-09-15T22:06:41.305Z,97059.75
2022-09-15T22:09:16.150Z,97059.69
2022-09-15T22:11:44.300Z,97065.69
2022-09-15T22:14:13.275Z,97063.00
2022-09-15T22:16:42.506Z,97059.81
2022-09-15T22:19:11.773Z,97052.22
2022-09-15T22:21:42.044Z,97072.31
2022-09-15T22:24:13.374Z,97066.88
2022-09-15T22:26:42.658Z,97067.84
2022-09-15T22:29:10.748Z,97067.84
2022-09-15T22:31:38.912Z,97066.34
2022-09-15T22:34:06.684Z,97075.03
2022-09-15T22:36:34.698Z,97068.38
2022-09-15T22:39:05.211Z,97065.06
2022-09-15T22:41:38.745Z,97072.72
2022-09-15T22:44:13.667Z,97067.53
2022-09-15T22:46:41.522Z,97071.06
2022-09-15T22:49:09.281Z,97074.81
2022-09-15T22:51:37.001Z,97076.44
2022-09-15T22:54:05.343Z,97082.91
2022-09-15T22:56:33.327Z,97091.41
2022-09-15T22:59:01.184Z,97090.22
2022-09-15T23:01:30.925Z,97085.44
2022-09-15T23:04:02.201Z,97086.63
2022-09-15T23:06:33.629Z,97084.53
2022-09-15T23:09:06.696Z,97082.31
2022-09-15T23:11:35.998Z,97086.25
2022-09-15T23:14:03.858Z,97075.94
2022-09-15T23:16:32.365Z,97085.13
2022-09-15T23:19:00.490Z,97089.38
2022-09-15T23:21:28.723Z,97085.47
2022-09-15T23:23:57.023Z,97092.28
2022-09-15T23:26:26.729Z,97090.66
2022-09-15T23:28:55.176Z,97093.72
2022-09-15T23:31:23.055Z,97085.34
2022-09-15T23:33:50.871Z,97082.78
2022-09-15T23:36:19.753Z,97087.97
2022-09-15T23:38:48.363Z,97080.94
2022-09-15T23:41:17.667Z,97080.56
2022-09-15T23:43:45.857Z,97074.72
2022-09-15T23:46:14.345Z,97084.03
2022-09-15T23:48:42.766Z,97086.34
2022-09-15T23:51:10.816Z,97073.25
2022-09-15T23:53:38.874Z,97078.16
2022-09-15T23:56:07.076Z,97083.13
2022-09-15T23:58:34.928Z,97082.44
